createdAt,value
2022-12-18T00:00:34.196Z,99585.13
2022-12-18T00:03:57.592Z,99587.30
2022-12-18T00:07:00.770Z,99590.15
2022-12-18T00:10:04.907Z,99598.38
2022-12-18T00:13:10.085Z,99601.41
2022-12-18T00:16:19.499Z,99605.11
2022-12-18T00:19:22.588Z,99603.30
2022-12-18T00:22:25.656Z,99604.89
2022-12-18T00:25:28.701Z,99612.33
2022-12-18T00:28:32.028Z,99617.33
2022-12-18T00:31:35.629Z,99615.83
2022-12-18T00:34:38.830Z,99617.61
2022-12-18T00:37:41.826Z,99622.98
2022-12-18T00:40:46.849Z,99625.13
2022-12-18T00:43:49.866Z,99627.16
2022-12-18T00:46:52.941Z,99634.33
2022-12-18T00:49:56.056Z,99636.41
2022-12-18T00:52:59.095Z,99638.15
2022-12-18T00:56:02.133Z,99641.66
2022-12-18T00:59:05.810Z,99647.36
2022-12-18T01:02:08.885Z,99651.35
2022-12-18T01:05:14.137Z,99660.45
2022-12-18T01:08:17.209Z,99667.30
2022-12-18T01:11:21.659Z,99672.69
2022-12-18T01:14:24.859Z,99670.05
2022-12-18T01:17:29.703Z,99668.48
2022-12-18T01:20:33.191Z,99667.35
2022-12-18T01:23:36.709Z,99667.19
2022-12-18T01:26:39.949Z,99667.48
2022-12-18T01:29:43.533Z,99671.73
2022-12-18T01:32:46.559Z,99670.23
2022-12-18T01:35:49.594Z,99669.96
2022-12-18T01:38:53.462Z,99673.61
2022-12-18T01:42:05.524Z,99678.63
2022-12-18T01:45:14.732Z,99685.98
2022-12-18T01:48:19.498Z,99683.27
2022-12-18T01:51:22.814Z,99682.80
2022-12-18T01:54:28.612Z,99685.45
2022-12-18T01:59:19.998Z,99691.20
2022-12-18T02:02:23.416Z,99700.69
2022-12-18T02:05:36.202Z,99709.41
2022-12-18T02:08:48.563Z,99710.01
2022-12-18T02:12:19.266Z,99713.61
2022-12-18T02:15:37.147Z,99723.64
2022-12-18T02:18:46.311Z,99728.86
2022-12-18T02:22:07.933Z,99731.50
2022-12-18T02:25:14.102Z,99741.95
2022-12-18T02:28:19.641Z,99739.27
2022-12-18T02:31:28.805Z,99740.29
2022-12-18T02:34:37.062Z,99741.69
2022-12-18T02:37:43.016Z,99741.96
2022-12-18T02:40:47.351Z,99748.42
2022-12-18T02:43:59.927Z,99748.65
2022-12-18T02:47:04.350Z,99750.42
2022-12-18T02:50:23.653Z,99757.80
2022-12-18T02:53:52.514Z,99759.73
2022-12-18T02:56:59.220Z,99765.13
2022-12-18T03:00:07.396Z,99770.40
2022-12-18T03:03:22.634Z,99775.67
2022-12-18T03:06:40.752Z,99777.79
2022-12-18T03:09:48.789Z,99783.39
2022-12-18T03:13:09.079Z,99792.54
2022-12-18T03:16:20.302Z,99796.20
2022-12-18T03:19:27.799Z,99796.84
2022-12-18T03:22:35.494Z,99798.19
2022-12-18T03:25:45.159Z,99795.98
2022-12-18T03:28:55.396Z,99794.09
2022-12-18T03:32:09.548Z,99799.80
2022-12-18T03:35:22.376Z,99802.49
2022-12-18T03:38:25.896Z,99806.38
2022-12-18T03:41:46.005Z,99809.02
2022-12-18T03:45:19.827Z,99815.10
2022-12-18T03:48:40.252Z,99816.77
2022-12-18T03:51:51.346Z,99816.17
2022-12-18T03:54:57.703Z,99822.69
2022-12-18T03:58:04.583Z,99825.66
2022-12-18T04:01:17.933Z,99828.35
2022-12-18T04:04:22.662Z,99833.14
2022-12-18T04:07:26.333Z,99834.66
2022-12-18T04:10:30.150Z,99839.02
2022-12-18T04:13:37.561Z,99837.83
2022-12-18T04:16:43.868Z,99837.55
2022-12-18T04:19:48.881Z,99837.40
2022-12-18T04:22:52.580Z,99840.90
2022-12-18T04:25:56.224Z,99846.01
2022-12-18T04:29:12.729Z,99844.61
2022-12-18T04:32:16.031Z,99852.95
2022-12-18T04:35:19.739Z,99855.16
2022-12-18T04:38:23.645Z,99861.51
2022-12-18T04:41:30.691Z,99862.75
2022-12-18T04:44:34.485Z,99863.08
2022-12-18T04:47:37.604Z,99871.64
2022-12-18T04:50:40.616Z,99872.55
2022-12-18T04:53:44.177Z,99875.69
2022-12-18T04:56:47.257Z,99873.31
2022-12-18T04:59:50.530Z,99879.23
2022-12-18T05:02:53.616Z,99881.72
2022-12-18T05:05:56.792Z,99886.50
2022-12-18T05:08:59.863Z,99888.48
2022-12-18T05:12:02.876Z,99890.92
2022-12-18T05:15:06.556Z,99896.41
2022-12-18T05:18:09.800Z,99901.14
2022-12-18T05:21:12.862Z,99907.02
2022-12-18T05:24:15.973Z,99912.02
2022-12-18T05:27:21.614Z,99918.31
2022-12-18T05:30:24.719Z,99919.40
2022-12-18T05:33:30.867Z,99922.24
2022-12-18T05:36:33.912Z,99922.85
2022-12-18T05:39:36.967Z,99926.30
2022-12-18T05:42:39.987Z,99929.14
2022-12-18T05:45:43.353Z,99934.75
2022-12-18T05:48:46.540Z,99936.30
2022-12-18T05:51:49.571Z,99940.77
2022-12-18T05:54:52.620Z,99938.23
2022-12-18T05:57:55.711Z,99934.58
2022-12-18T06:01:06.579Z,99941.58
2022-12-18T06:04:09.663Z,99944.27
2022-12-18T06:07:12.833Z,99941.74
2022-12-18T06:10:18.508Z,99940.98
2022-12-18T06:13:22.075Z,99943.84
2022-12-18T06:16:25.344Z,99953.75
2022-12-18T06:19:28.548Z,99957.40
2022-12-18T06:22:33.197Z,99955.46
2022-12-18T06:25:39.713Z,99958.70
2022-12-18T06:28:43.090Z,99963.54
2022-12-18T06:31:46.694Z,99967.95
2022-12-18T06:34:49.882Z,99971.56
2022-12-18T06:37:52.999Z,99973.71
2022-12-18T06:40:56.076Z,99972.59
2022-12-18T06:44:00.083Z,99982.33
2022-12-18T06:47:03.878Z,99986.96
2022-12-18T06:50:12.617Z,99994.83
2022-12-18T06:53:18.832Z,99999.29
2022-12-18T06:56:22.157Z,100002.73
2022-12-18T06:59:25.441Z,100003.31
2022-12-18T07:02:29.543Z,100005.96
2022-12-18T07:05:32.737Z,100008.33
2022-12-18T07:08:35.868Z,100008.21
2022-12-18T07:11:39.163Z,100014.91
2022-12-18T07:14:42.332Z,100023.67
2022-12-18T07:17:45.397Z,100030.83
2022-12-18T07:20:48.461Z,100037.46
2022-12-18T07:23:52.179Z,100038.10
2022-12-18T07:26:55.519Z,100040.42
2022-12-18T07:29:58.563Z,100043.93
2022-12-18T07:33:01.690Z,100047.11
2022-12-18T07:36:06.978Z,100048.88
2022-12-18T07:39:12.524Z,100055.73
2022-12-18T07:42:33.917Z,100060.03
2022-12-18T07:45:37.358Z,100058.96
2022-12-18T07:48:49.307Z,100060.19
2022-12-18T07:51:58.527Z,100064.67
2022-12-18T07:55:01.542Z,100063.77
2022-12-18T07:58:05.378Z,100062.33
2022-12-18T08:01:10.968Z,100059.20
2022-12-18T08:04:14.673Z,100054.68
2022-12-18T08:07:17.921Z,100057.91
2022-12-18T08:10:21.845Z,100059.42
2022-12-18T08:13:26.055Z,100059.91
2022-12-18T08:16:29.540Z,100063.94
2022-12-18T08:19:32.622Z,100062.66
2022-12-18T08:22:38.951Z,100066.80
2022-12-18T08:25:41.978Z,100067.39
2022-12-18T08:28:45.547Z,100067.16
2022-12-18T08:31:48.781Z,100074.23
2022-12-18T08:34:51.939Z,100078.80
2022-12-18T08:37:55.195Z,100086.40
2022-12-18T08:41:07.069Z,100094.63
2022-12-18T08:44:28.767Z,100102.05
2022-12-18T08:47:32.181Z,100106.10
2022-12-18T08:50:35.313Z,100109.22
2022-12-18T08:53:39.075Z,100107.98
2022-12-18T08:56:42.365Z,100112.10
2022-12-18T08:59:45.517Z,100117.25
2022-12-18T09:02:51.532Z,100113.83
2022-12-18T09:05:54.816Z,100114.33
2022-12-18T09:08:58.594Z,100118.89
2022-12-18T09:12:04.757Z,100118.69
2022-12-18T09:15:08.087Z,100126.10
2022-12-18T09:18:11.178Z,100123.42
2022-12-18T09:21:21.772Z,100119.44
2022-12-18T09:24:24.881Z,100121.61
2022-12-18T09:27:28.279Z,100123.66
2022-12-18T09:30:31.835Z,100130.19
2022-12-18T09:33:37.189Z,100126.52
2022-12-18T09:36:40.730Z,100129.71
2022-12-18T09:39:43.816Z,100125.23
2022-12-18T09:42:52.533Z,100130.30
2022-12-18T09:46:12.623Z,100132.52
2022-12-18T09:49:19.849Z,100132.73
2022-12-18T09:52:26.889Z,100137.54
2022-12-18T09:55:37.525Z,100129.92
2022-12-18T09:58:51.193Z,100132.61
2022-12-18T10:01:54.431Z,100136.70
2022-12-18T10:05:04.053Z,100131.27
2022-12-18T10:08:17.449Z,100131.31
2022-12-18T10:11:49.053Z,100127.48
2022-12-18T10:15:08.004Z,100133.05
2022-12-18T10:18:25.503Z,100130.41
2022-12-18T10:21:38.689Z,100130.20
2022-12-18T10:24:54.247Z,100126.02
2022-12-18T10:28:01.534Z,100111.13
2022-12-18T10:31:15.507Z,100106.64
2022-12-18T10:34:18.956Z,100107.30
2022-12-18T10:37:25.190Z,100109.72
2022-12-18T10:40:28.307Z,100109.81
2022-12-18T10:43:32.387Z,100110.78
2022-12-18T10:46:35.788Z,100107.17
2022-12-18T10:49:49.483Z,100105.33
2022-12-18T10:52:59.214Z,100102.02
2022-12-18T10:56:05.144Z,100097.45
2022-12-18T10:59:11.710Z,100085.15
2022-12-18T11:02:38.501Z,100084.02
2022-12-18T11:05:41.794Z,100075.48
2022-12-18T11:08:58.484Z,100076.65
2022-12-18T11:12:04.905Z,100076.83
2022-12-18T11:15:28.987Z,100069.43
2022-12-18T11:18:36.991Z,100069.97
2022-12-18T11:21:42.593Z,100069.64
2022-12-18T11:25:29.645Z,100077.64
2022-12-18T11:28:42.624Z,100083.48
2022-12-18T11:31:46.162Z,100090.43
2022-12-18T11:34:59.153Z,100091.84
2022-12-18T11:38:08.344Z,100097.71
2022-12-18T11:41:45.591Z,100093.40
2022-12-18T11:44:55.665Z,100099.55
2022-12-18T11:48:07.858Z,100102.30
2022-12-18T11:51:19.843Z,100098.27
2022-12-18T11:54:22.955Z,100102.30
2022-12-18T11:57:50.001Z,100102.20
2022-12-18T12:01:04.582Z,100109.48
2022-12-18T12:04:32.192Z,100108.38
2022-12-18T12:08:10.768Z,100113.27
2022-12-18T12:11:13.716Z,100117.77
2022-12-18T12:14:44.085Z,100111.08
2022-12-18T12:18:22.382Z,100109.74
2022-12-18T12:21:25.360Z,100109.41
2022-12-18T12:24:39.334Z,100117.14
2022-12-18T12:28:11.790Z,100124.64
2022-12-18T12:31:43.183Z,100128.30
2022-12-18T12:35:09.872Z,100131.85
2022-12-18T12:38:26.379Z,100125.33
2022-12-18T12:41:52.888Z,100131.20
2022-12-18T12:44:59.595Z,100131.59
2022-12-18T12:48:05.211Z,100132.19
2022-12-18T12:51:15.011Z,100130.84
2022-12-18T12:54:25.823Z,100132.13
2022-12-18T12:57:38.016Z,100139.10
2022-12-18T13:00:52.747Z,100137.69
2022-12-18T13:04:12.875Z,100133.27
2022-12-18T13:07:33.542Z,100138.61
2022-12-18T13:10:42.086Z,100138.06
2022-12-18T13:13:56.784Z,100138.50
2022-12-18T13:17:16.413Z,100139.09
2022-12-18T13:20:19.570Z,100139.69
2022-12-18T13:23:34.201Z,100143.30
2022-12-18T13:26:37.323Z,100142.27
2022-12-18T13:29:45.875Z,100148.63
2022-12-18T13:32:48.986Z,100149.86
2022-12-18T13:35:53.870Z,100147.64
2022-12-18T13:39:18.527Z,100147.23
2022-12-18T13:42:58.897Z,100154.27
2022-12-18T13:46:21.502Z,100156.30
2022-12-18T13:49:24.587Z,100163.27
2022-12-18T13:52:37.460Z,100159.64
2022-12-18T13:55:53.677Z,100157.67
2022-12-18T13:59:34.213Z,100156.10
2022-12-18T14:02:37.501Z,100151.05
2022-12-18T14:05:42.899Z,100145.54
2022-12-18T14:08:48.140Z,100141.73
2022-12-18T14:11:52.948Z,100148.66
2022-12-18T14:14:56.884Z,100151.02
2022-12-18T14:18:20.035Z,100146.63
2022-12-18T14:21:27.264Z,100144.70
2022-12-18T14:24:31.407Z,100141.06
2022-12-18T14:27:39.128Z,100140.20
2022-12-18T14:30:45.164Z,100147.77
2022-12-18T14:33:48.546Z,100149.71
2022-12-18T14:36:56.329Z,100150.27
2022-12-18T14:40:13.993Z,100154.11
2022-12-18T14:43:22.189Z,100157.23
2022-12-18T14:46:34.320Z,100159.39
2022-12-18T14:49:38.242Z,100164.20
2022-12-18T14:52:42.040Z,100173.30
2022-12-18T14:55:48.714Z,100172.26
2022-12-18T14:58:54.415Z,100174.73
2022-12-18T15:02:09.677Z,100176.21
2022-12-18T15:05:14.590Z,100184.20
2022-12-18T15:08:35.743Z,100187.67
2022-12-18T15:11:41.858Z,100192.33
2022-12-18T15:14:45.007Z,100194.14
2022-12-18T15:17:48.197Z,100189.98
2022-12-18T15:20:56.278Z,100194.70
2022-12-18T15:23:59.631Z,100196.14
2022-12-18T15:27:02.821Z,100202.25
2022-12-18T15:30:09.009Z,100203.41
2022-12-18T15:33:43.422Z,100203.14
2022-12-18T15:36:47.045Z,100211.27
2022-12-18T15:39:50.155Z,100215.66
2022-12-18T15:43:17.249Z,100210.67
2022-12-18T15:46:23.738Z,100208.70
2022-12-18T15:49:27.064Z,100210.66
2022-12-18T15:52:30.241Z,100206.18
2022-12-18T15:55:54.232Z,100206.88
2022-12-18T15:59:00.261Z,100209.02
2022-12-18T16:02:05.777Z,100221.23
2022-12-18T16:05:16.282Z,100226.05
2022-12-18T16:08:27.779Z,100226.17
2022-12-18T16:11:39.569Z,100221.42
2022-12-18T16:14:43.823Z,100222.10
2022-12-18T16:17:48.128Z,100224.98
2022-12-18T16:20:51.968Z,100228.83
2022-12-18T16:23:55.161Z,100225.15
2022-12-18T16:27:00.432Z,100226.39
2022-12-18T16:30:04.504Z,100219.08
2022-12-18T16:33:08.666Z,100224.55
2022-12-18T16:36:11.860Z,100222.41
2022-12-18T16:39:15.070Z,100222.48
2022-12-18T16:42:20.800Z,100222.82
2022-12-18T16:45:24.084Z,100227.21
2022-12-18T16:48:30.123Z,100221.13
2022-12-18T16:51:33.395Z,100223.38
2022-12-18T16:54:36.938Z,100222.70
2022-12-18T16:57:40.114Z,100213.50
2022-12-18T17:00:43.195Z,100200.41
2022-12-18T17:03:53.109Z,100191.77
2022-12-18T17:06:56.198Z,100188.44
2022-12-18T17:09:59.285Z,100184.23
2022-12-18T17:13:02.464Z,100175.83
2022-12-18T17:16:07.326Z,100177.49
2022-12-18T17:19:16.795Z,100176.71
2022-12-18T17:22:23.420Z,100169.42
2022-12-18T17:25:26.757Z,100171.69
2022-12-18T17:28:30.828Z,100174.88
2022-12-18T17:31:34.841Z,100172.43
2022-12-18T17:34:38.927Z,100171.67
2022-12-18T17:37:43.484Z,100180.76
2022-12-18T17:40:46.817Z,100187.65
2022-12-18T17:43:55.396Z,100190.06
2022-12-18T17:46:58.764Z,100190.70
2022-12-18T17:50:01.941Z,100191.41
2022-12-18T17:53:05.086Z,100191.67
2022-12-18T17:56:13.824Z,100198.99
2022-12-18T17:59:16.880Z,100199.19
2022-12-18T18:02:20.256Z,100200.48
2022-12-18T18:05:31.092Z,100203.71
2022-12-18T18:08:36.081Z,100200.29
2022-12-18T18:11:57.498Z,100197.98
2022-12-18T18:15:06.179Z,100196.86
2022-12-18T18:18:09.918Z,100196.61
2022-12-18T18:21:50.354Z,100197.09
2022-12-18T18:25:15.136Z,100197.52
2022-12-18T18:28:18.527Z,100203.74
2022-12-18T18:31:41.748Z,100204.83
2022-12-18T18:34:45.138Z,100205.18
2022-12-18T18:37:49.094Z,100210.98
2022-12-18T18:41:02.870Z,100212.90
2022-12-18T18:44:09.923Z,100214.05
2022-12-18T18:47:14.234Z,100210.23
2022-12-18T18:50:17.460Z,100219.14
2022-12-18T18:53:20.553Z,100222.36
2022-12-18T18:56:56.132Z,100230.38
2022-12-18T18:59:58.362Z,100230.02
2022-12-18T19:03:14.198Z,100233.86
2022-12-18T19:06:27.943Z,100239.70
2022-12-18T19:09:55.543Z,100247.33
2022-12-18T19:13:23.236Z,100248.14
2022-12-18T19:16:29.655Z,100242.83
2022-12-18T19:19:33.073Z,100232.77
2022-12-18T19:22:36.343Z,100228.97
2022-12-18T19:30:17.057Z,100239.66
2022-12-18T19:37:08.076Z,100248.41
2022-12-18T19:40:19.371Z,100256.02
2022-12-18T19:43:38.588Z,100259.36
2022-12-18T19:53:19.741Z,100230.30
2022-12-18T19:56:31.275Z,100227.84
2022-12-18T19:59:42.982Z,100234.42
2022-12-18T20:02:46.469Z,100236.39
2022-12-18T20:05:50.522Z,100237.27
2022-12-18T20:09:01.355Z,100236.23
2022-12-18T20:12:08.892Z,100232.83
2022-12-18T20:15:11.262Z,100231.64
2022-12-18T20:18:13.174Z,100230.29
2022-12-18T20:21:15.740Z,100232.80
2022-12-18T20:24:28.424Z,100224.73
2022-12-18T20:27:30.587Z,100222.54
2022-12-18T20:30:33.552Z,100221.54
2022-12-18T20:33:40.133Z,100216.18
2022-12-18T20:36:45.919Z,100211.04
2022-12-18T20:40:15.514Z,100207.24
2022-12-18T20:47:40.172Z,100209.89
2022-12-18T20:57:02.847Z,100200.52
2022-12-18T21:00:07.509Z,100202.69
2022-12-18T21:08:15.504Z,100204.70
2022-12-18T21:26:22.936Z,100203.10
2022-12-18T21:29:26.276Z,100199.40
2022-12-18T21:32:29.389Z,100194.20
2022-12-18T21:35:37.271Z,100192.48
2022-12-18T21:38:39.022Z,100194.00
2022-12-18T21:41:59.432Z,100192.44
2022-12-18T21:45:01.575Z,100191.63
2022-12-18T21:48:03.926Z,100191.69
2022-12-18T21:51:05.774Z,100189.66
2022-12-18T21:54:08.537Z,100185.11
2022-12-18T21:57:12.727Z,100186.07
2022-12-18T22:00:18.438Z,100183.08
2022-12-18T22:03:21.824Z,100184.90
2022-12-18T22:06:23.648Z,100188.94
2022-12-18T22:09:25.452Z,100191.31
2022-12-18T22:12:42.886Z,100188.10
2022-12-18T22:15:46.363Z,100190.02
2022-12-18T22:18:48.115Z,100191.52
2022-12-18T22:21:50.353Z,100189.56
2022-12-18T22:24:52.061Z,100182.98
2022-12-18T22:28:12.367Z,100184.92
2022-12-18T22:31:14.278Z,100183.59
2022-12-18T22:34:19.370Z,100188.05
2022-12-18T22:37:23.637Z,100187.60
2022-12-18T22:40:26.511Z,100182.66
2022-12-18T22:43:28.412Z,100178.88
2022-12-18T22:46:32.590Z,100173.48
2022-12-18T22:49:35.381Z,100171.01
2022-12-18T22:52:37.773Z,100165.77
2022-12-18T22:55:39.471Z,100165.71
2022-12-18T22:58:41.187Z,100168.69
2022-12-18T23:01:43.426Z,100164.76
2022-12-18T23:04:48.224Z,100166.10
2022-12-18T23:07:49.858Z,100163.80
2022-12-18T23:10:52.753Z,100170.95
2022-12-18T23:13:55.167Z,100170.21
2022-12-18T23:16:59.281Z,100168.45
2022-12-18T23:20:01.164Z,100176.19
2022-12-18T23:23:02.812Z,100176.66
2022-12-18T23:26:13.475Z,100170.25
2022-12-18T23:29:15.195Z,100163.84
2022-12-18T23:32:16.934Z,100165.91
2022-12-18T23:35:18.749Z,100164.23
2022-12-18T23:38:20.433Z,100165.81
2022-12-18T23:41:24.913Z,100164.85
2022-12-18T23:44:27.092Z,100164.09
2022-12-18T23:47:29.670Z,100164.31
2022-12-18T23:50:34.674Z,100155.25
2022-12-18T23:53:36.756Z,100147.84
2022-12-18T23:56:38.459Z,100141.20
2022-12-18T23:59:40.196Z,100137.23
